Time;durP1;ratioP1;P1;durP2;ratioP2;P2;SDS_P1;SDS_P2;PMS_P1;PMS_P2;Temp;Humidity;BMP_temperature;BMP_pressure;BME280_temperature;BME280_humidity;BME280_pressure;Samples;Min_cycle;Max_cycle;Signal;HPM_P1;HPM_P2
2020/12/27 00:01:43;;;;;;;1999.90;999.90;;;;;;;;;;5043903;28;20026;-66
2020/12/27 00:04:09;;;;;;;352.75;320.20;;;;;;;;;;5042250;28;20519;-65
2020/12/27 00:06:35;;;;;;;352.77;319.75;;;;;;;;;;5046511;28;20107;-65
2020/12/27 00:09:01;;;;;;;333.40;301.75;;;;;;;;;;5045603;28;20551;-66
2020/12/27 00:11:27;;;;;;;1999.90;999.90;;;;;;;;;;5040184;28;20882;-66
2020/12/27 00:13:53;;;;;;;1999.90;999.90;;;;;;;;;;5030526;28;21530;-66
2020/12/27 00:16:26;;;;;;;719.28;642.38;;;;;;;;;;5032618;28;20508;-68
2020/12/27 00:18:52;;;;;;;356.60;323.40;;;;;;;;;;5031968;28;20162;-67
2020/12/27 00:21:19;;;;;;;340.40;308.23;;;;;;;;;;5031571;28;20584;-67
2020/12/27 00:23:45;;;;;;;1999.90;999.90;;;;;;;;;;5030025;28;20037;-67
2020/12/27 00:26:11;;;;;;;1999.90;999.90;;;;;;;;;;5029949;28;20064;-66
2020/12/27 00:28:37;;;;;;;1999.90;999.90;;;;;;;;;;5034407;28;20033;-68
2020/12/27 00:31:03;;;;;;;384.90;350.75;;;;;;;;;;5033070;28;20029;-67
2020/12/27 00:33:30;;;;;;;345.05;312.55;;;;;;;;;;5033356;28;20022;-67
2020/12/27 00:35:56;;;;;;;343.63;311.30;;;;;;;;;;5034464;28;20498;-67
2020/12/27 00:38:22;;;;;;;458.05;411.52;;;;;;;;;;5038639;28;20060;-67
2020/12/27 00:40:48;;;;;;;354.95;321.98;;;;;;;;;;5034784;28;20039;-68
2020/12/27 00:43:14;;;;;;;363.70;330.35;;;;;;;;;;5037065;28;20116;-67
2020/12/27 00:45:40;;;;;;;1999.90;999.90;;;;;;;;;;5036182;28;20491;-66
2020/12/27 00:48:06;;;;;;;357.63;324.75;;;;;;;;;;5035322;28;20029;-67
2020/12/27 00:50:33;;;;;;;333.83;301.85;;;;;;;;;;5034718;28;20094;-67
2020/12/27 00:52:59;;;;;;;360.38;327.27;;;;;;;;;;5036807;28;20029;-69
2020/12/27 00:55:27;;;;;;;1999.90;999.90;;;;;;;;;;5034588;28;20036;-67
2020/12/27 00:57:53;;;;;;;1999.90;999.90;;;;;;;;;;5040646;28;21030;-67
2020/12/27 01:00:26;;;;;;;1999.90;999.90;;;;;;;;;;5038454;28;20613;-68
2020/12/27 01:02:52;;;;;;;1999.90;999.90;;;;;;;;;;5037503;28;20560;-67
2020/12/27 01:05:18;;;;;;;1129.38;972.40;;;;;;;;;;5033578;28;20025;-67
2020/12/27 01:07:44;;;;;;;345.98;313.50;;;;;;;;;;5033181;28;20041;-67
2020/12/27 01:10:10;;;;;;;352.33;319.40;;;;;;;;;;5034538;28;20044;-68
2020/12/27 01:12:36;;;;;;;348.92;316.52;;;;;;;;;;5034161;28;20102;-68
2020/12/27 01:15:02;;;;;;;357.13;324.30;;;;;;;;;;5034629;28;20478;-67
2020/12/27 01:17:28;;;;;;;326.38;294.52;;;;;;;;;;5038193;28;20037;-66
2020/12/27 01:19:55;;;;;;;1999.90;999.90;;;;;;;;;;5045335;28;20037;-66
2020/12/27 01:22:21;;;;;;;1999.90;999.90;;;;;;;;;;5041793;28;20032;-66
2020/12/27 01:24:47;;;;;;;1999.90;999.90;;;;;;;;;;5049803;28;20428;-66
2020/12/27 01:27:13;;;;;;;1999.90;999.90;;;;;;;;;;5049567;28;20049;-66
2020/12/27 01:29:39;;;;;;;1999.90;999.90;;;;;;;;;;5053749;28;20060;-66
2020/12/27 01:32:05;;;;;;;1548.22;999.90;;;;;;;;;;5050162;28;20032;-66
2020/12/27 01:34:31;;;;;;;341.67;309.70;;;;;;;;;;5053934;28;20108;-66
2020/12/27 01:36:57;;;;;;;313.00;281.92;;;;;;;;;;5047987;28;20163;-66
2020/12/27 01:39:23;;;;;;;1999.90;999.90;;;;;;;;;;5052733;28;20104;-66
2020/12/27 01:41:51;;;;;;;325.85;294.27;;;;;;;;;;5045673;28;20037;-67
2020/12/27 01:44:17;;;;;;;322.65;291.45;;;;;;;;;;5043171;28;20334;-67
2020/12/27 01:46:44;;;;;;;345.73;313.35;;;;;;;;;;5051907;28;20039;-68
2020/12/27 01:49:11;;;;;;;345.98;313.52;;;;;;;;;;5049588;28;20102;-67
2020/12/27 01:51:37;;;;;;;1999.90;999.90;;;;;;;;;;5053334;28;20033;-68
2020/12/27 01:54:04;;;;;;;425.90;382.58;;;;;;;;;;5041603;28;20484;-67
2020/12/27 01:56:42;;;;;;;319.17;288.10;;;;;;;;;;5053663;28;20033;-67
2020/12/27 01:59:18;;;;;;;1999.90;999.90;;;;;;;;;;5052619;28;20033;-67
2020/12/27 02:01:44;;;;;;;351.98;319.17;;;;;;;;;;5052090;28;20025;-68
2020/12/27 02:04:11;;;;;;;358.08;325.23;;;;;;;;;;5052903;28;20036;-67
2020/12/27 02:06:40;;;;;;;308.42;277.85;;;;;;;;;;5050361;28;20025;-68
2020/12/27 02:09:07;;;;;;;340.25;308.35;;;;;;;;;;5051723;28;20094;-66
2020/12/27 02:11:33;;;;;;;1999.90;999.90;;;;;;;;;;5053458;28;20365;-66
2020/12/27 02:13:59;;;;;;;1999.90;999.90;;;;;;;;;;5050483;28;20051;-66
2020/12/27 02:16:26;;;;;;;1525.53;999.90;;;;;;;;;;5053073;28;20525;-67
2020/12/27 02:18:53;;;;;;;1999.90;999.90;;;;;;;;;;5050601;28;20489;-67
2020/12/27 02:21:19;;;;;;;1999.90;999.90;;;;;;;;;;5053294;28;20021;-67
2020/12/27 02:23:46;;;;;;;306.27;275.60;;;;;;;;;;5050044;28;20103;-67
2020/12/27 02:26:12;;;;;;;307.80;277.45;;;;;;;;;;5052661;28;20044;-66
2020/12/27 02:28:38;;;;;;;328.27;297.00;;;;;;;;;;5051001;28;20029;-67
2020/12/27 02:31:05;;;;;;;358.25;325.45;;;;;;;;;;5052631;28;20032;-67
2020/12/27 02:33:31;;;;;;;327.33;295.77;;;;;;;;;;5050428;28;20041;-67
2020/12/27 02:35:57;;;;;;;328.45;297.08;;;;;;;;;;5052523;28;20040;-67
2020/12/27 02:38:23;;;;;;;342.55;310.58;;;;;;;;;;5050548;28;20137;-68
2020/12/27 02:40:49;;;;;;;319.08;288.02;;;;;;;;;;5050330;28;20036;-67
2020/12/27 02:43:19;;;;;;;336.75;305.30;;;;;;;;;;5049117;28;20025;-67
2020/12/27 02:45:45;;;;;;;326.95;295.33;;;;;;;;;;5044697;28;20025;-68
2020/12/27 02:48:12;;;;;;;1999.90;999.90;;;;;;;;;;5049274;28;20103;-67
2020/12/27 02:50:38;;;;;;;1999.90;999.90;;;;;;;;;;5049549;28;20025;-67
2020/12/27 02:53:04;;;;;;;1442.75;999.90;;;;;;;;;;5050611;28;20039;-67
2020/12/27 02:55:31;;;;;;;341.08;309.33;;;;;;;;;;5051978;28;20068;-67
2020/12/27 02:57:57;;;;;;;340.80;308.92;;;;;;;;;;5049815;28;20091;-66
2020/12/27 03:00:23;;;;;;;339.50;307.58;;;;;;;;;;5050833;28;20029;-67
2020/12/27 03:02:49;;;;;;;1999.90;999.90;;;;;;;;;;5047830;28;20037;-67
2020/12/27 03:05:15;;;;;;;322.88;291.60;;;;;;;;;;5052133;28;20040;-66
2020/12/27 03:07:41;;;;;;;309.27;278.83;;;;;;;;;;5050045;28;20037;-66
2020/12/27 03:10:08;;;;;;;302.25;272.13;;;;;;;;;;5051647;28;20025;-66
2020/12/27 03:12:34;;;;;;;1999.90;999.90;;;;;;;;;;5050159;28;20059;-66
2020/12/27 03:15:00;;;;;;;312.88;281.80;;;;;;;;;;5052090;28;20032;-66
2020/12/27 03:17:26;;;;;;;1388.90;999.90;;;;;;;;;;5050859;28;20510;-66
2020/12/27 03:19:52;;;;;;;316.05;285.25;;;;;;;;;;5050171;28;20497;-66
2020/12/27 03:22:18;;;;;;;318.13;287.17;;;;;;;;;;5049981;28;20037;-66
2020/12/27 03:24:44;;;;;;;332.08;300.65;;;;;;;;;;5051356;28;20033;-66
2020/12/27 03:27:10;;;;;;;302.08;271.65;;;;;;;;;;5049915;28;20062;-66
2020/12/27 03:29:36;;;;;;;1999.90;999.90;;;;;;;;;;5052269;28;20025;-66
2020/12/27 03:32:02;;;;;;;341.23;309.33;;;;;;;;;;5050259;28;20489;-67
2020/12/27 03:34:28;;;;;;;1999.90;999.90;;;;;;;;;;5044728;28;20031;-68
2020/12/27 03:36:54;;;;;;;316.27;285.13;;;;;;;;;;5031979;28;20037;-68
2020/12/27 03:39:20;;;;;;;307.15;276.83;;;;;;;;;;5049161;28;20045;-67
2020/12/27 03:41:46;;;;;;;321.88;290.52;;;;;;;;;;5047807;28;20025;-69
2020/12/27 03:44:12;;;;;;;306.05;275.55;;;;;;;;;;5050854;28;20028;-68
2020/12/27 03:46:38;;;;;;;1999.90;999.90;;;;;;;;;;5051173;28;20021;-68
2020/12/27 03:49:04;;;;;;;1999.90;999.90;;;;;;;;;;5038087;28;20126;-66
2020/12/27 03:51:30;;;;;;;1999.90;999.90;;;;;;;;;;5051043;28;20025;-66
2020/12/27 03:53:56;;;;;;;619.95;553.97;;;;;;;;;;5038347;28;20075;-66
2020/12/27 03:56:24;;;;;;;328.45;297.10;;;;;;;;;;5051238;28;20397;-67
2020/12/27 03:58:50;;;;;;;;;;;;;;;;;;5044749;28;20041;-67
2020/12/27 04:01:16;;;;;;;325.58;294.45;;;;;;;;;;5051596;28;20333;-66
2020/12/27 04:03:42;;;;;;;320.40;289.55;;;;;;;;;;5052894;28;20029;-67
2020/12/27 04:06:08;;;;;;;333.00;301.50;;;;;;;;;;5055724;28;20116;-67
2020/12/27 04:08:34;;;;;;;323.83;292.63;;;;;;;;;;5053693;28;20369;-67
2020/12/27 04:11:00;;;;;;;331.30;300.17;;;;;;;;;;5050932;28;20120;-67
2020/12/27 04:13:27;;;;;;;1999.90;999.90;;;;;;;;;;5053449;28;20422;-67
2020/12/27 04:15:53;;;;;;;1999.90;999.90;;;;;;;;;;5055375;28;20037;-68
2020/12/27 04:18:19;;;;;;;311.17;280.45;;;;;;;;;;5052499;28;20119;-67
2020/12/27 04:20:45;;;;;;;327.85;296.70;;;;;;;;;;5047619;28;20053;-68
2020/12/27 04:23:11;;;;;;;305.50;275.27;;;;;;;;;;5053630;28;20055;-68
2020/12/27 04:25:37;;;;;;;342.02;310.25;;;;;;;;;;5054906;28;20469;-67
2020/12/27 04:28:03;;;;;;;291.60;261.63;;;;;;;;;;5053094;28;20044;-68
2020/12/27 04:30:29;;;;;;;306.92;276.58;;;;;;;;;;5055611;28;20079;-66
2020/12/27 04:32:56;;;;;;;1999.90;999.90;;;;;;;;;;5050817;28;20465;-67
2020/12/27 04:35:21;;;;;;;478.35;429.73;;;;;;;;;;5053203;28;20477;-67
2020/12/27 04:37:47;;;;;;;332.27;300.70;;;;;;;;;;5051368;28;20052;-66
2020/12/27 04:40:13;;;;;;;318.85;287.80;;;;;;;;;;5054144;28;20025;-66
2020/12/27 04:42:40;;;;;;;299.85;269.80;;;;;;;;;;5052325;28;20366;-66
2020/12/27 04:45:05;;;;;;;303.27;272.92;;;;;;;;;;5052693;28;20379;-68
2020/12/27 04:47:32;;;;;;;320.65;289.83;;;;;;;;;;5052026;28;20041;-67
2020/12/27 04:49:58;;;;;;;1999.90;999.90;;;;;;;;;;5054685;28;20043;-68
2020/12/27 04:52:24;;;;;;;376.50;337.45;;;;;;;;;;5051829;28;20104;-67
2020/12/27 04:54:50;;;;;;;335.85;304.38;;;;;;;;;;5054397;28;20033;-66
2020/12/27 04:57:17;;;;;;;1999.90;999.90;;;;;;;;;;5048413;28;20038;-66
2020/12/27 04:59:45;;;;;;;1999.90;999.90;;;;;;;;;;5049266;28;20100;-66
2020/12/27 05:02:11;;;;;;;517.92;464.05;;;;;;;;;;5051798;28;20173;-66
2020/12/27 05:04:38;;;;;;;282.35;252.93;;;;;;;;;;5054583;28;20032;-67
2020/12/27 05:07:04;;;;;;;306.25;275.75;;;;;;;;;;5050415;28;20743;-68
2020/12/27 05:09:30;;;;;;;276.10;247.00;;;;;;;;;;5054413;28;20025;-67
2020/12/27 05:11:57;;;;;;;329.30;297.95;;;;;;;;;;5052179;28;22310;-68
2020/12/27 05:14:26;;;;;;;313.05;282.42;;;;;;;;;;5053489;28;20441;-67
2020/12/27 05:16:57;;;;;;;1999.90;999.90;;;;;;;;;;5051493;28;20033;-68
2020/12/27 05:19:23;;;;;;;1999.90;999.90;;;;;;;;;;5054078;28;20079;-68
2020/12/27 05:21:49;;;;;;;312.27;281.20;;;;;;;;;;5052605;28;20167;-67
2020/12/27 05:24:16;;;;;;;330.67;299.38;;;;;;;;;;5053782;28;20096;-67
2020/12/27 05:26:42;;;;;;;;;;;;;;;;;;5047314;28;20052;-67
2020/12/27 05:29:09;;;;;;;293.48;263.75;;;;;;;;;;5048694;28;20013;-67
2020/12/27 05:31:37;;;;;;;313.10;282.58;;;;;;;;;;5052901;28;20407;-66
2020/12/27 05:34:03;;;;;;;;;;;;;;;;;;5052264;28;20025;-67
2020/12/27 05:36:30;;;;;;;298.40;268.38;;;;;;;;;;5053702;28;19970;-67
2020/12/27 05:38:56;;;;;;;322.33;291.30;;;;;;;;;;5049148;28;20041;-67
2020/12/27 05:41:25;;;;;;;325.20;294.15;;;;;;;;;;5053535;28;20036;-67
2020/12/27 05:44:01;;;;;;;1999.90;999.90;;;;;;;;;;5048928;28;20444;-67
2020/12/27 05:46:29;;;;;;;1999.90;999.90;;;;;;;;;;5053006;28;20029;-67
2020/12/27 05:48:55;;;;;;;1999.90;999.90;;;;;;;;;;5039261;28;20029;-67
2020/12/27 05:51:22;;;;;;;321.77;290.73;;;;;;;;;;5052436;28;20025;-68
2020/12/27 05:53:53;;;;;;;328.40;297.17;;;;;;;;;;5049762;28;20061;-67
2020/12/27 05:56:19;;;;;;;1999.90;999.90;;;;;;;;;;5051854;28;20033;-67
2020/12/27 05:58:47;;;;;;;311.17;280.37;;;;;;;;;;5051364;28;20386;-68
2020/12/27 06:01:19;;;;;;;329.85;298.48;;;;;;;;;;5052729;28;20057;-67
2020/12/27 06:04:12;;;;;;;1548.68;999.90;;;;;;;;;;5050343;28;20044;-67
2020/12/27 06:06:38;;;;;;;1999.90;999.90;;;;;;;;;;5051066;28;20045;-67
2020/12/27 06:09:06;;;;;;;1999.90;999.90;;;;;;;;;;5050637;28;20035;-67
2020/12/27 06:11:45;;;;;;;338.05;306.15;;;;;;;;;;5053243;28;20501;-67
2020/12/27 06:14:17;;;;;;;1999.90;999.90;;;;;;;;;;5052655;28;20028;-67
2020/12/27 06:16:46;;;;;;;326.58;295.05;;;;;;;;;;5046512;28;20033;-67
2020/12/27 06:19:32;;;;;;;967.55;862.97;;;;;;;;;;5052909;28;20029;-67
2020/12/27 06:21:58;;;;;;;313.90;283.20;;;;;;;;;;5051554;28;20041;-68
2020/12/27 06:24:25;;;;;;;273.25;244.35;;;;;;;;;;5052565;28;20029;-66
2020/12/27 06:26:51;;;;;;;326.38;295.35;;;;;;;;;;5051490;28;20032;-69
2020/12/27 06:29:17;;;;;;;296.23;266.35;;;;;;;;;;5052717;28;20029;-66
2020/12/27 06:31:43;;;;;;;336.45;304.67;;;;;;;;;;5051884;28;20099;-67
2020/12/27 06:34:09;;;;;;;301.98;271.67;;;;;;;;;;5052928;28;20477;-67
2020/12/27 06:36:35;;;;;;;313.73;283.27;;;;;;;;;;5053476;28;20040;-66
2020/12/27 06:39:21;;;;;;;331.90;300.60;;;;;;;;;;5050919;28;20489;-67
2020/12/27 06:42:03;;;;;;;346.48;314.48;;;;;;;;;;5050631;28;20021;-68
2020/12/27 06:44:40;;;;;;;1513.80;999.90;;;;;;;;;;5043245;28;20112;-67
2020/12/27 06:47:06;;;;;;;321.93;291.10;;;;;;;;;;5047743;28;20444;-67
2020/12/27 06:49:32;;;;;;;302.42;272.08;;;;;;;;;;5047425;28;20449;-66
2020/12/27 06:52:18;;;;;;;313.08;282.40;;;;;;;;;;5041096;28;20087;-66
2020/12/27 06:54:47;;;;;;;347.43;315.73;;;;;;;;;;5050867;28;20064;-68
2020/12/27 06:57:33;;;;;;;1999.90;999.90;;;;;;;;;;5050705;28;20099;-67
2020/12/27 07:00:20;;;;;;;1999.90;999.90;;;;;;;;;;5052853;28;20055;-67
2020/12/27 07:02:46;;;;;;;1999.90;999.90;;;;;;;;;;5039727;28;20128;-67
2020/12/27 07:05:31;;;;;;;313.92;283.25;;;;;;;;;;5051125;28;20139;-67
2020/12/27 07:07:57;;;;;;;325.33;294.38;;;;;;;;;;5046658;28;20033;-66
2020/12/27 07:10:24;;;;;;;1999.90;999.90;;;;;;;;;;5052572;28;20071;-66
2020/12/27 07:12:50;;;;;;;318.02;287.13;;;;;;;;;;5050332;28;20086;-66
2020/12/27 07:15:16;;;;;;;1999.90;999.90;;;;;;;;;;5052466;28;20025;-66
2020/12/27 07:17:42;;;;;;;1531.95;999.90;;;;;;;;;;5050021;28;20033;-66
2020/12/27 07:20:18;;;;;;;295.80;265.60;;;;;;;;;;5050807;28;20037;-66
2020/12/27 07:22:44;;;;;;;1999.90;999.90;;;;;;;;;;5040231;28;20025;-67
2020/12/27 07:25:15;;;;;;;1531.97;999.90;;;;;;;;;;5051347;28;20037;-67
2020/12/27 07:27:43;;;;;;;300.17;270.17;;;;;;;;;;5044080;28;20026;-67
2020/12/27 07:30:09;;;;;;;;;;;;;;;;;;5049922;28;20477;-68
2020/12/27 07:32:43;;;;;;;1512.22;999.90;;;;;;;;;;5050489;28;20420;-67
2020/12/27 07:35:10;;;;;;;322.30;291.17;;;;;;;;;;5051882;28;20568;-67
2020/12/27 07:37:36;;;;;;;1999.90;999.90;;;;;;;;;;5052490;28;20504;-67
2020/12/27 07:40:03;;;;;;;308.27;277.73;;;;;;;;;;5056273;28;20029;-67
2020/12/27 07:42:33;;;;;;;306.27;276.02;;;;;;;;;;5054052;28;20025;-66
2020/12/27 07:45:01;;;;;;;285.58;256.20;;;;;;;;;;5044827;28;20029;-67
2020/12/27 07:47:26;;;;;;;;;;;;;;;;;;5044632;28;20521;-68
2020/12/27 07:50:03;;;;;;;301.85;271.80;;;;;;;;;;5055083;28;19995;-67
2020/12/27 07:52:41;;;;;;;303.35;273.15;;;;;;;;;;5050157;28;20456;-67
2020/12/27 07:55:07;;;;;;;289.85;260.20;;;;;;;;;;5054967;28;20046;-67
2020/12/27 07:57:33;;;;;;;315.70;285.05;;;;;;;;;;5051778;28;20025;-68
2020/12/27 08:00:06;;;;;;;329.65;298.38;;;;;;;;;;5055696;28;20393;-67
2020/12/27 08:02:33;;;;;;;295.90;266.20;;;;;;;;;;5046323;28;20056;-67
2020/12/27 08:05:02;;;;;;;294.90;265.05;;;;;;;;;;5055416;28;20037;-68
2020/12/27 08:07:28;;;;;;;1511.10;999.90;;;;;;;;;;5050764;28;20064;-67
2020/12/27 08:09:54;;;;;;;289.52;260.00;;;;;;;;;;5055511;28;20033;-67
2020/12/27 08:12:20;;;;;;;297.20;267.50;;;;;;;;;;5052110;28;20052;-67
2020/12/27 08:14:46;;;;;;;274.55;245.52;;;;;;;;;;5055738;28;20029;-67
2020/12/27 08:17:16;;;;;;;1999.90;999.90;;;;;;;;;;5053313;28;20431;-68
2020/12/27 08:19:42;;;;;;;1999.90;999.90;;;;;;;;;;5052895;28;22241;-68
2020/12/27 08:22:08;;;;;;;317.88;286.80;;;;;;;;;;5053877;28;20029;-67
2020/12/27 08:24:34;;;;;;;328.13;296.95;;;;;;;;;;5053891;28;20055;-67
2020/12/27 08:27:00;;;;;;;304.65;274.20;;;;;;;;;;5053320;28;20057;-67
2020/12/27 08:29:27;;;;;;;334.58;303.17;;;;;;;;;;5055659;28;20029;-66
2020/12/27 08:32:04;;;;;;;300.63;270.33;;;;;;;;;;5053218;28;20358;-68
2020/12/27 08:34:30;;;;;;;1999.90;999.90;;;;;;;;;;5052273;28;20060;-67
2020/12/27 08:36:58;;;;;;;342.67;310.75;;;;;;;;;;5053014;28;22602;-67
2020/12/27 08:39:30;;;;;;;289.02;259.38;;;;;;;;;;5055358;28;20574;-67
2020/12/27 08:42:02;;;;;;;313.55;282.88;;;;;;;;;;5045067;28;20057;-68
2020/12/27 08:44:34;;;;;;;326.13;294.77;;;;;;;;;;5051130;28;20500;-66
2020/12/27 08:47:02;;;;;;;313.67;283.25;;;;;;;;;;5051182;28;20033;-67
2020/12/27 08:49:32;;;;;;;318.08;287.48;;;;;;;;;;5055087;28;20469;-67
2020/12/27 08:52:06;;;;;;;303.90;273.45;;;;;;;;;;5053073;28;20036;-67
2020/12/27 08:54:33;;;;;;;303.40;273.27;;;;;;;;;;5045099;28;20047;-68
2020/12/27 08:57:01;;;;;;;1999.90;999.90;;;;;;;;;;5049281;28;20097;-68
2020/12/27 08:59:27;;;;;;;1086.72;961.22;;;;;;;;;;5055217;28;20424;-67
2020/12/27 09:01:53;;;;;;;316.80;285.85;;;;;;;;;;5053061;28;20017;-67
2020/12/27 09:04:20;;;;;;;1999.90;999.90;;;;;;;;;;5055087;28;20040;-67
2020/12/27 09:06:53;;;;;;;1999.90;999.90;;;;;;;;;;5053392;28;20029;-69
2020/12/27 09:09:19;;;;;;;1508.53;999.90;;;;;;;;;;5054533;28;20032;-66
2020/12/27 09:11:46;;;;;;;331.98;300.27;;;;;;;;;;5052658;28;20031;-68
2020/12/27 09:14:28;;;;;;;323.10;292.10;;;;;;;;;;5053192;28;20063;-67
2020/12/27 09:16:54;;;;;;;338.65;306.70;;;;;;;;;;5052590;28;20067;-68
2020/12/27 09:19:20;;;;;;;340.92;309.33;;;;;;;;;;5054505;28;20091;-67
2020/12/27 09:21:46;;;;;;;274.45;245.15;;;;;;;;;;5051848;28;20108;-69
2020/12/27 09:24:13;;;;;;;261.27;232.70;;;;;;;;;;5053617;28;20032;-67
2020/12/27 09:26:39;;;;;;;335.90;304.45;;;;;;;;;;5053454;28;20022;-68
2020/12/27 09:29:14;;;;;;;320.73;289.90;;;;;;;;;;5053776;28;20504;-66
2020/12/27 09:31:40;;;;;;;318.98;288.02;;;;;;;;;;5053251;28;20417;-67
2020/12/27 09:34:06;;;;;;;306.83;276.55;;;;;;;;;;5045481;28;20053;-67
2020/12/27 09:36:32;;;;;;;312.02;281.58;;;;;;;;;;5051650;28;20432;-67
2020/12/27 09:38:58;;;;;;;305.75;275.58;;;;;;;;;;5041385;28;20041;-67
2020/12/27 09:41:24;;;;;;;318.92;287.85;;;;;;;;;;5053671;28;20441;-67
2020/12/27 09:43:58;;;;;;;320.25;289.48;;;;;;;;;;5048524;28;20037;-66
2020/12/27 09:46:43;;;;;;;311.70;281.05;;;;;;;;;;5054474;28;20025;-67
2020/12/27 09:49:35;;;;;;;330.38;298.83;;;;;;;;;;5048068;28;20102;-67
2020/12/27 09:52:07;;;;;;;320.92;290.05;;;;;;;;;;5048240;28;20083;-67
2020/12/27 09:54:34;;;;;;;312.08;281.77;;;;;;;;;;5046561;28;20128;-66
2020/12/27 09:57:12;;;;;;;305.52;275.15;;;;;;;;;;5050867;28;20041;-67
2020/12/27 09:59:39;;;;;;;276.13;246.95;;;;;;;;;;5052731;28;20033;-67
2020/12/27 10:02:05;;;;;;;313.48;282.98;;;;;;;;;;5048891;28;20025;-67
2020/12/27 10:04:31;;;;;;;308.92;278.73;;;;;;;;;;5048022;28;20035;-67
2020/12/27 10:06:57;;;;;;;313.80;283.17;;;;;;;;;;5050543;28;20033;-68
2020/12/27 10:09:23;;;;;;;286.35;256.95;;;;;;;;;;5054765;28;20032;-68
2020/12/27 10:11:49;;;;;;;273.20;244.10;;;;;;;;;;5043601;28;20037;-69
2020/12/27 10:14:15;;;;;;;296.80;266.90;;;;;;;;;;5047677;28;20175;-68
2020/12/27 10:16:41;;;;;;;325.52;294.50;;;;;;;;;;5052329;28;20040;-69
2020/12/27 10:19:07;;;;;;;300.10;270.35;;;;;;;;;;5051329;28;20032;-69
2020/12/27 10:21:33;;;;;;;309.60;279.48;;;;;;;;;;5053355;28;20025;-68
2020/12/27 10:23:59;;;;;;;317.73;286.80;;;;;;;;;;5047074;28;20029;-69
2020/12/27 10:26:25;;;;;;;328.00;296.58;;;;;;;;;;5051142;28;20025;-68
2020/12/27 10:28:51;;;;;;;312.75;282.02;;;;;;;;;;5040418;28;20469;-68
2020/12/27 10:31:17;;;;;;;312.85;282.17;;;;;;;;;;5053118;28;20021;-68
2020/12/27 10:33:44;;;;;;;267.17;238.38;;;;;;;;;;5040712;28;20465;-69
2020/12/27 10:36:10;;;;;;;300.35;270.45;;;;;;;;;;5052807;28;20375;-68
2020/12/27 10:38:36;;;;;;;330.67;299.58;;;;;;;;;;5040033;28;20079;-68
2020/12/27 10:41:02;;;;;;;310.85;280.60;;;;;;;;;;5050407;28;20096;-67
2020/12/27 10:43:28;;;;;;;257.92;229.57;;;;;;;;;;5042860;28;20029;-67
2020/12/27 10:45:58;;;;;;;285.85;256.42;;;;;;;;;;5043500;28;20036;-68
2020/12/27 10:48:24;;;;;;;297.50;267.63;;;;;;;;;;5050245;28;20039;-66
2020/12/27 10:50:50;;;;;;;314.05;283.48;;;;;;;;;;5045572;28;20093;-67
2020/12/27 10:53:16;;;;;;;318.30;287.60;;;;;;;;;;5048556;28;20112;-67
2020/12/27 10:55:51;;;;;;;287.98;258.23;;;;;;;;;;5051152;28;20057;-67
2020/12/27 10:58:17;;;;;;;281.85;252.60;;;;;;;;;;5036613;28;20048;-66
2020/12/27 11:00:44;;;;;;;285.20;255.65;;;;;;;;;;5047637;28;20029;-67
2020/12/27 11:03:10;;;;;;;256.42;227.70;;;;;;;;;;5043195;28;20079;-68
2020/12/27 11:05:36;;;;;;;267.30;238.52;;;;;;;;;;5046998;28;20091;-67
2020/12/27 11:08:02;;;;;;;262.02;233.40;;;;;;;;;;5041450;28;20115;-67
2020/12/27 11:10:28;;;;;;;299.65;269.50;;;;;;;;;;5047956;28;20534;-69
2020/12/27 11:12:54;;;;;;;264.45;235.98;;;;;;;;;;5032331;28;20112;-66
2020/12/27 11:15:20;;;;;;;308.55;278.33;;;;;;;;;;5046495;28;20017;-67
2020/12/27 11:17:46;;;;;;;281.67;252.30;;;;;;;;;;5040610;28;20129;-67
2020/12/27 11:20:13;;;;;;;287.33;257.60;;;;;;;;;;5044514;28;20017;-66
2020/12/27 11:22:39;;;;;;;;;;;;;;;;;;5044364;28;20029;-66
2020/12/27 11:25:05;;;;;;;1987.93;999.90;;;;;;;;;;5044157;28;19943;-67
2020/12/27 11:27:31;;;;;;;315.25;284.55;;;;;;;;;;5049307;28;20112;-67
2020/12/27 11:29:57;;;;;;;292.30;262.48;;;;;;;;;;5046699;28;20029;-66
2020/12/27 11:32:24;;;;;;;307.67;277.55;;;;;;;;;;5047085;28;20028;-67
2020/12/27 11:34:50;;;;;;;284.75;255.32;;;;;;;;;;5049803;28;20029;-67
2020/12/27 11:37:16;;;;;;;297.17;267.15;;;;;;;;;;5048591;28;20386;-67
2020/12/27 11:39:42;;;;;;;280.02;250.88;;;;;;;;;;5051720;28;20057;-67
2020/12/27 11:42:08;;;;;;;311.15;280.75;;;;;;;;;;5048835;28;20544;-66
2020/12/27 11:44:34;;;;;;;303.58;273.27;;;;;;;;;;5050307;28;20033;-66
2020/12/27 11:47:07;;;;;;;279.52;250.18;;;;;;;;;;5049244;28;20520;-66
2020/12/27 11:49:33;;;;;;;309.40;278.88;;;;;;;;;;5048438;28;20441;-66
2020/12/27 11:51:59;;;;;;;330.20;298.92;;;;;;;;;;5044780;28;20115;-66
2020/12/27 11:54:25;;;;;;;661.17;591.50;;;;;;;;;;5044056;28;20100;-66
2020/12/27 11:56:57;;;;;;;1999.90;999.90;;;;;;;;;;5047428;28;20098;-66
2020/12/27 11:59:24;;;;;;;295.75;265.70;;;;;;;;;;5046888;28;20069;-66
2020/12/27 12:01:51;;;;;;;272.63;243.32;;;;;;;;;;5044285;28;20544;-67
2020/12/27 12:04:17;;;;;;;299.63;269.67;;;;;;;;;;5044404;28;20033;-65
2020/12/27 12:06:43;;;;;;;298.25;268.15;;;;;;;;;;5046879;28;20287;-68
2020/12/27 12:09:10;;;;;;;284.42;255.13;;;;;;;;;;5045530;28;20037;-66
2020/12/27 12:11:36;;;;;;;311.05;280.52;;;;;;;;;;5048302;28;20025;-66
2020/12/27 12:14:03;;;;;;;294.17;263.92;;;;;;;;;;5044703;28;20028;-66
2020/12/27 12:16:29;;;;;;;284.58;255.10;;;;;;;;;;5051214;28;20381;-66
2020/12/27 12:18:56;;;;;;;271.43;242.47;;;;;;;;;;5047785;28;20037;-66
2020/12/27 12:21:22;;;;;;;336.67;305.37;;;;;;;;;;5050245;28;20025;-66
2020/12/27 12:23:48;;;;;;;310.60;280.15;;;;;;;;;;5048331;28;20104;-69
2020/12/27 12:26:18;;;;;;;309.10;278.00;;;;;;;;;;5053425;28;20025;-67
2020/12/27 12:28:44;;;;;;;313.90;282.98;;;;;;;;;;5052181;28;20037;-69
2020/12/27 12:31:14;;;;;;;308.23;277.55;;;;;;;;;;5054842;28;20166;-67
2020/12/27 12:33:40;;;;;;;328.00;296.67;;;;;;;;;;5053067;28;20033;-68
2020/12/27 12:36:06;;;;;;;323.20;291.88;;;;;;;;;;5055417;28;20028;-68
2020/12/27 12:38:33;;;;;;;277.05;247.80;;;;;;;;;;5053446;28;20064;-68
2020/12/27 12:40:59;;;;;;;293.58;263.67;;;;;;;;;;5053772;28;20362;-67
2020/12/27 12:43:30;;;;;;;259.70;231.10;;;;;;;;;;5040598;28;20029;-67
2020/12/27 12:45:57;;;;;;;283.00;253.63;;;;;;;;;;5044440;28;20079;-67
2020/12/27 12:48:23;;;;;;;304.58;274.13;;;;;;;;;;5047068;28;20048;-67
2020/12/27 12:50:49;;;;;;;297.15;267.05;;;;;;;;;;5042744;28;20026;-67
2020/12/27 12:53:15;;;;;;;284.92;255.38;;;;;;;;;;5045596;28;20029;-67
2020/12/27 12:55:41;;;;;;;1989.05;999.90;;;;;;;;;;5051320;28;20063;-67
2020/12/27 12:58:07;;;;;;;308.25;277.63;;;;;;;;;;5042194;28;20041;-67
2020/12/27 13:00:33;;;;;;;310.52;280.00;;;;;;;;;;5045318;28;20028;-68
2020/12/27 13:02:59;;;;;;;270.70;241.75;;;;;;;;;;5043029;28;20033;-68
2020/12/27 13:05:25;;;;;;;311.88;281.13;;;;;;;;;;5045538;28;20119;-67
2020/12/27 13:07:51;;;;;;;316.70;285.67;;;;;;;;;;5043816;28;20721;-68
2020/12/27 13:10:18;;;;;;;313.42;282.92;;;;;;;;;;5044278;28;20087;-68
2020/12/27 13:12:44;;;;;;;313.05;282.35;;;;;;;;;;5043928;28;20028;-68
2020/12/27 13:15:10;;;;;;;298.13;268.23;;;;;;;;;;5044087;28;20029;-68
2020/12/27 13:17:36;;;;;;;276.48;247.05;;;;;;;;;;5045534;28;20025;-67
2020/12/27 13:20:07;;;;;;;324.15;293.23;;;;;;;;;;5051020;28;20493;-67
2020/12/27 13:22:33;;;;;;;279.67;250.52;;;;;;;;;;5040473;28;20014;-68
2020/12/27 13:24:59;;;;;;;307.42;277.35;;;;;;;;;;5046559;28;20458;-68
2020/12/27 13:27:25;;;;;;;281.30;252.13;;;;;;;;;;5051429;28;20029;-67
2020/12/27 13:29:51;;;;;;;265.98;237.27;;;;;;;;;;5053586;28;20374;-68
2020/12/27 13:32:17;;;;;;;290.25;260.38;;;;;;;;;;5051877;28;20029;-68
2020/12/27 13:34:43;;;;;;;319.15;288.30;;;;;;;;;;5052697;28;20037;-68
2020/12/27 13:37:09;;;;;;;310.38;279.95;;;;;;;;;;5050682;28;20047;-69
2020/12/27 13:39:35;;;;;;;269.42;240.63;;;;;;;;;;5053968;28;20335;-68
2020/12/27 13:42:01;;;;;;;1999.90;999.90;;;;;;;;;;5050698;28;20044;-68
2020/12/27 13:44:27;;;;;;;289.67;259.67;;;;;;;;;;5042765;28;20021;-68
2020/12/27 13:46:53;;;;;;;312.50;281.83;;;;;;;;;;5044150;28;20029;-68
2020/12/27 13:49:19;;;;;;;319.92;288.98;;;;;;;;;;5048450;28;20040;-68
2020/12/27 13:51:45;;;;;;;329.33;298.00;;;;;;;;;;5036404;28;20107;-68
2020/12/27 13:54:12;;;;;;;290.63;260.02;;;;;;;;;;5032715;28;20028;-73